Time;durP1;ratioP1;P1;durP2;ratioP2;P2;SDS_P1;SDS_P2;PMS_P1;PMS_P2;Temp;Humidity;BMP_temperature;BMP_pressure;BME280_temperature;BME280_humidity;BME280_pressure;Samples;Min_cycle;Max_cycle;Signal;HPM_P1;HPM_P2
2022/06/12 04:01:22;;;;;;;9.25;7.78;;;12.50;99.90;;;;;;5709076;22;20055;-76
2022/06/12 04:03:49;;;;;;;8.45;7.55;;;12.60;99.90;;;;;;5128900;27;20058;-76
2022/06/12 04:06:25;;;;;;;11.13;8.18;;;12.60;99.90;;;;;;5132005;27;20031;-76
2022/06/12 04:08:57;;;;;;;11.65;8.02;;;12.70;99.90;;;;;;5134539;27;20126;-76
2022/06/12 04:11:26;;;;;;;11.27;8.52;;;12.70;99.90;;;;;;5125180;27;20115;-78
2022/06/12 04:13:52;;;;;;;10.85;7.95;;;12.70;99.90;;;;;;5115684;28;20115;-78
2022/06/12 04:16:43;;;;;;;10.10;7.28;;;12.80;99.90;;;;;;5114570;28;20056;-77
2022/06/12 04:19:14;;;;;;;10.57;7.72;;;12.80;99.90;;;;;;5113000;28;20117;-77
2022/06/12 04:21:59;;;;;;;9.90;7.35;;;12.80;99.90;;;;;;5114105;28;20482;-77
2022/06/12 04:24:43;;;;;;;10.70;8.02;;;12.70;99.90;;;;;;5095123;28;20040;-75
2022/06/12 04:27:15;;;;;;;11.45;8.60;;;12.70;99.90;;;;;;5112723;28;20024;-75
2022/06/12 04:29:54;;;;;;;9.85;7.38;;;12.70;99.90;;;;;;5094361;28;20032;-75
2022/06/12 04:32:21;;;;;;;11.13;7.85;;;12.80;99.90;;;;;;5113143;28;20438;-75
2022/06/12 04:34:47;;;;;;;11.40;8.40;;;12.80;99.90;;;;;;5112799;28;20028;-75
2022/06/12 04:37:17;;;;;;;9.52;7.68;;;12.80;99.90;;;;;;5113076;28;20177;-76
2022/06/12 04:39:44;;;;;;;10.63;8.27;;;12.90;99.90;;;;;;5113339;28;20481;-75
2022/06/12 04:42:13;;;;;;;11.57;8.23;;;12.90;99.90;;;;;;5113086;27;20074;-75
2022/06/12 04:44:39;;;;;;;8.55;7.63;;;12.90;99.90;;;;;;5113732;28;20039;-75
2022/06/12 04:47:05;;;;;;;9.18;7.60;;;12.90;99.90;;;;;;5094967;28;20452;-75
2022/06/12 04:49:34;;;;;;;8.23;7.43;;;13.00;99.90;;;;;;5113247;28;20477;-75
2022/06/12 04:52:02;;;;;;;9.30;8.25;;;12.90;99.90;;;;;;5112787;28;20040;-75
2022/06/12 04:54:29;;;;;;;8.98;7.97;;;13.00;99.90;;;;;;5112656;28;20032;-75
2022/06/12 04:56:54;;;;;;;10.77;8.23;;;13.10;99.90;;;;;;5112481;28;20040;-75
2022/06/12 04:59:20;;;;;;;10.43;8.13;;;13.10;99.90;;;;;;5112585;28;20136;-76
2022/06/12 05:01:48;;;;;;;11.00;8.32;;;13.20;99.90;;;;;;5112150;27;20068;-76
2022/06/12 05:04:15;;;;;;;10.38;8.18;;;13.30;99.90;;;;;;5112450;28;20036;-75
2022/06/12 05:06:42;;;;;;;11.30;8.65;;;13.30;99.90;;;;;;5094500;28;20047;-75
2022/06/12 05:09:10;;;;;;;12.15;7.90;;;13.40;99.90;;;;;;5113223;28;20036;-75
2022/06/12 05:11:36;;;;;;;10.77;7.65;;;13.50;99.90;;;;;;5112598;28;20024;-75
2022/06/12 05:14:02;;;;;;;11.40;7.93;;;13.60;99.90;;;;;;5113720;28;20043;-75
2022/06/12 05:16:35;;;;;;;9.23;7.45;;;13.70;99.90;;;;;;5113491;28;20032;-76
2022/06/12 05:19:02;;;;;;;12.48;8.15;;;13.80;99.90;;;;;;5112618;28;20040;-75
2022/06/12 05:21:30;;;;;;;9.82;7.70;;;13.90;99.90;;;;;;5112545;28;20032;-75
2022/06/12 05:23:56;;;;;;;8.52;6.80;;;14.10;99.90;;;;;;5112615;28;20477;-76
2022/06/12 05:26:23;;;;;;;7.20;6.47;;;14.20;99.90;;;;;;5093993;28;20043;-75
2022/06/12 05:28:48;;;;;;;8.40;6.68;;;14.40;99.90;;;;;;5113339;28;20040;-75
2022/06/12 05:31:16;;;;;;;8.98;6.70;;;14.60;99.90;;;;;;5113391;28;20424;-76
2022/06/12 05:33:43;;;;;;;7.97;6.78;;;14.70;99.90;;;;;;5112567;28;20039;-75
2022/06/12 05:36:12;;;;;;;8.68;6.63;;;14.80;99.90;;;;;;5112273;28;20025;-75
2022/06/12 05:38:38;;;;;;;9.20;6.07;;;15.00;99.90;;;;;;5095014;28;20524;-75
2022/06/12 05:41:03;;;;;;;9.18;6.15;;;15.10;99.90;;;;;;5113801;27;20033;-75
2022/06/12 05:43:29;;;;;;;7.88;5.97;;;15.20;99.90;;;;;;5116040;28;20500;-76
2022/06/12 05:45:55;;;;;;;7.60;5.50;;;15.40;99.90;;;;;;5115647;28;20143;-75
2022/06/12 05:48:21;;;;;;;6.63;5.50;;;15.60;99.90;;;;;;5116474;28;20038;-75
2022/06/12 05:50:52;;;;;;;7.53;5.10;;;15.70;99.90;;;;;;5115426;27;20146;-75
2022/06/12 05:53:18;;;;;;;6.05;5.43;;;15.80;99.90;;;;;;5116115;28;20036;-75
2022/06/12 05:55:45;;;;;;;7.50;5.25;;;15.90;99.90;;;;;;5116107;28;20032;-75
2022/06/12 05:58:12;;;;;;;6.63;5.15;;;16.10;99.90;;;;;;5116104;28;20082;-75
2022/06/12 06:00:37;;;;;;;7.00;5.72;;;16.20;99.90;;;;;;5115586;27;20036;-75
2022/06/12 06:03:03;;;;;;;7.00;5.47;;;16.20;99.90;;;;;;5096843;28;20040;-75
2022/06/12 06:05:28;;;;;;;7.53;5.00;;;16.40;99.90;;;;;;5096635;28;20032;-75
2022/06/12 06:07:54;;;;;;;6.03;5.20;;;16.50;99.90;;;;;;5115654;28;20067;-75
2022/06/12 06:10:24;;;;;;;7.05;5.07;;;16.50;99.90;;;;;;5096009;27;20056;-76
2022/06/12 06:12:49;;;;;;;7.28;4.90;;;16.60;99.90;;;;;;5115477;28;20034;-75
2022/06/12 06:15:15;;;;;;;6.28;5.28;;;16.60;99.90;;;;;;5096952;28;20388;-75
2022/06/12 06:17:41;;;;;;;7.32;5.40;;;16.70;99.90;;;;;;5114727;28;20664;-75
2022/06/12 06:20:07;;;;;;;7.15;5.40;;;16.80;99.90;;;;;;5115384;28;20036;-75
2022/06/12 06:22:33;;;;;;;7.20;5.25;;;16.80;99.90;;;;;;5115417;28;20127;-75
2022/06/12 06:24:59;;;;;;;7.22;5.65;;;17.00;99.90;;;;;;5116154;28;20039;-76
2022/06/12 06:27:25;;;;;;;7.35;5.22;;;17.10;99.90;;;;;;5097079;28;20055;-76
2022/06/12 06:29:50;;;;;;;6.97;5.50;;;17.20;99.90;;;;;;5114761;28;20036;-75
2022/06/12 06:32:16;;;;;;;6.53;5.25;;;17.30;99.90;;;;;;5115571;28;20028;-75
2022/06/12 06:34:42;;;;;;;6.60;5.10;;;17.40;99.90;;;;;;5114031;28;20366;-75
2022/06/12 06:37:10;;;;;;;8.10;5.13;;;17.40;99.90;;;;;;5115151;28;20032;-75
2022/06/12 06:39:38;;;;;;;6.88;5.13;;;17.60;99.90;;;;;;5115373;28;20409;-76
2022/06/12 06:42:05;;;;;;;6.65;5.22;;;17.70;99.90;;;;;;5114739;27;20031;-75
2022/06/12 06:47:15;;;;;;;8.30;4.82;;;18.00;99.90;;;;;;5115480;28;20514;-75
2022/06/12 06:49:40;;;;;;;5.68;4.75;;;18.20;99.90;;;;;;5115449;28;20036;-75
2022/06/12 06:52:06;;;;;;;6.35;5.30;;;18.40;99.90;;;;;;5114611;27;20028;-76
2022/06/12 06:54:32;;;;;;;8.50;5.68;;;18.50;99.90;;;;;;5114940;28;20028;-76
2022/06/12 06:56:58;;;;;;;6.32;5.15;;;18.70;99.90;;;;;;5115039;28;20028;-76
2022/06/12 06:59:23;;;;;;;6.40;4.97;;;18.80;99.90;;;;;;5115757;28;20036;-75
2022/06/12 07:01:49;;;;;;;6.97;5.05;;;19.00;99.90;;;;;;5113718;27;20040;-75
2022/06/12 07:04:15;;;;;;;7.10;5.25;;;19.10;99.90;;;;;;5114817;28;20481;-74
2022/06/12 07:06:41;;;;;;;5.78;4.82;;;19.30;99.90;;;;;;5114595;28;20036;-76
2022/06/12 07:09:07;;;;;;;5.93;5.13;;;19.50;99.90;;;;;;5115818;28;20107;-75
2022/06/12 07:11:33;;;;;;;7.50;5.15;;;19.70;99.90;;;;;;5095990;28;20374;-75
2022/06/12 07:13:59;;;;;;;8.68;5.20;;;20.00;99.90;;;;;;5114330;28;20549;-75
2022/06/12 07:16:26;;;;;;;7.38;5.32;;;20.10;99.90;;;;;;5114474;28;20498;-75
2022/06/12 07:18:52;;;;;;;6.00;5.15;;;20.30;99.90;;;;;;5114914;28;20048;-75
2022/06/12 07:21:19;;;;;;;6.88;5.35;;;20.60;99.90;;;;;;5096555;28;20446;-76
2022/06/12 07:23:45;;;;;;;8.05;5.43;;;20.80;99.90;;;;;;5114735;28;20060;-75
2022/06/12 07:26:20;;;;;;;5.90;4.97;;;20.90;99.90;;;;;;5114668;28;20028;-76
2022/06/12 07:28:48;;;;;;;10.85;5.72;;;21.20;99.90;;;;;;5112822;28;20051;-75
2022/06/12 07:31:13;;;;;;;7.18;5.68;;;21.40;99.90;;;;;;5114372;27;20028;-75
2022/06/12 07:33:39;;;;;;;7.47;5.70;;;21.50;99.90;;;;;;5113985;28;20032;-74
2022/06/12 07:36:07;;;;;;;7.25;5.50;;;21.70;99.90;;;;;;5114333;28;20024;-75
2022/06/12 07:38:34;;;;;;;9.25;5.40;;;21.70;99.90;;;;;;5115374;28;20040;-75
2022/06/12 07:41:02;;;;;;;7.40;5.38;;;22.00;99.90;;;;;;5113268;27;20400;-76
2022/06/12 07:43:33;;;;;;;6.20;4.90;;;22.30;99.90;;;;;;5114197;28;20043;-75
2022/06/12 07:45:59;;;;;;;7.82;4.68;;;22.50;99.90;;;;;;5114662;28;20035;-74
2022/06/12 07:48:25;;;;;;;6.38;4.63;;;22.80;99.90;;;;;;5113953;28;20036;-76
2022/06/12 07:50:51;;;;;;;5.05;4.40;;;22.80;99.90;;;;;;5113661;27;20028;-76
2022/06/12 07:53:20;;;;;;;4.45;3.95;;;23.00;99.90;;;;;;5114683;28;20529;-77
2022/06/12 07:55:46;;;;;;;6.20;4.60;;;23.10;99.90;;;;;;5095216;28;20124;-77
2022/06/12 07:58:13;;;;;;;6.65;4.07;;;23.30;99.90;;;;;;5095852;28;20490;-76
2022/06/12 08:00:40;;;;;;;5.70;3.97;;;23.50;99.90;;;;;;5113821;28;20032;-76
2022/06/12 08:03:09;;;;;;;7.38;3.70;;;23.80;99.90;;;;;;5116281;27;20792;-82
2022/06/12 08:05:35;;;;;;;6.72;3.97;;;24.00;98.70;;;;;;5099122;28;20020;-76
2022/06/12 08:08:00;;;;;;;6.47;3.50;;;24.20;98.80;;;;;;5097796;28;20062;-76
2022/06/12 08:10:26;;;;;;;5.78;3.47;;;24.20;97.20;;;;;;5115066;27;20154;-77
2022/06/12 08:12:55;;;;;;;3.40;3.10;;;24.50;96.20;;;;;;5097130;28;20119;-79
2022/06/12 08:15:25;;;;;;;5.82;3.50;;;24.70;96.70;;;;;;5117006;28;20059;-75
2022/06/12 08:17:52;;;;;;;6.15;3.70;;;24.80;96.40;;;;;;5116005;28;20047;-76
2022/06/12 08:20:24;;;;;;;4.70;3.58;;;24.80;97.80;;;;;;5097244;28;20090;-77
2022/06/12 08:22:52;;;;;;;6.28;3.25;;;24.90;95.10;;;;;;5117922;28;20028;-76
2022/06/12 08:25:18;;;;;;;4.43;2.72;;;24.90;93.40;;;;;;5118703;28;20024;-77
2022/06/12 08:27:45;;;;;;;2.80;2.60;;;25.20;92.30;;;;;;5121033;28;20036;-78
2022/06/12 08:30:11;;;;;;;3.22;2.88;;;25.50;93.40;;;;;;5122218;28;20482;-77
2022/06/12 08:32:37;;;;;;;3.95;2.90;;;25.70;91.30;;;;;;5125698;28;20039;-77
2022/06/12 08:35:11;;;;;;;6.20;3.22;;;25.90;90.80;;;;;;5126850;28;20460;-77
2022/06/12 08:37:38;;;;;;;4.28;3.08;;;26.20;90.10;;;;;;5126374;28;20453;-77
2022/06/12 08:40:11;;;;;;;4.75;2.90;;;26.40;90.40;;;;;;5128443;28;20331;-77
2022/06/12 08:42:43;;;;;;;5.03;2.90;;;26.60;87.60;;;;;;5109613;28;20028;-77
2022/06/12 08:45:12;;;;;;;3.58;3.10;;;26.60;86.30;;;;;;5107887;28;20032;-77
2022/06/12 08:48:04;;;;;;;4.78;3.00;;;26.70;88.60;;;;;;5126620;28;20089;-77
2022/06/12 08:50:40;;;;;;;4.07;2.50;;;27.00;86.30;;;;;;5090178;28;20093;-77
2022/06/12 08:53:07;;;;;;;5.10;2.90;;;26.80;87.30;;;;;;5108188;28;20058;-77
2022/06/12 08:56:14;;;;;;;5.22;2.60;;;26.80;90.40;;;;;;5108996;28;20028;-77
2022/06/12 08:59:06;;;;;;;5.53;2.83;;;26.90;85.80;;;;;;5125544;28;20048;-77
2022/06/12 09:01:34;;;;;;;4.15;2.70;;;26.80;86.50;;;;;;5110132;27;20121;-77
2022/06/12 09:04:00;;;;;;;5.78;2.60;;;27.00;84.20;;;;;;5107875;28;20051;-77
2022/06/12 09:06:53;;;;;;;5.78;2.55;;;26.80;82.10;;;;;;5107545;28;20741;-77
2022/06/12 09:09:30;;;;;;;4.15;2.75;;;26.80;86.80;;;;;;5124559;28;20047;-77
2022/06/12 09:12:02;;;;;;;4.75;2.33;;;26.60;87.10;;;;;;5125072;27;20032;-77
2022/06/12 09:14:41;;;;;;;3.38;2.20;;;26.50;85.60;;;;;;5122277;28;20088;-77
2022/06/12 09:17:29;;;;;;;3.55;2.20;;;26.60;83.70;;;;;;5124539;28;20831;-77
2022/06/12 09:20:13;;;;;;;4.60;2.50;;;26.90;82.70;;;;;;5120202;28;20043;-77
2022/06/12 09:23:01;;;;;;;2.78;2.25;;;27.10;81.40;;;;;;5120689;28;20043;-77
2022/06/12 09:25:42;;;;;;;4.38;2.67;;;27.30;81.90;;;;;;5122397;28;20039;-77
2022/06/12 09:28:29;;;;;;;2.90;2.30;;;27.30;81.20;;;;;;5123415;28;20028;-77
2022/06/12 09:31:20;;;;;;;4.20;2.80;;;27.60;79.30;;;;;;5119990;28;20043;-77
2022/06/12 09:33:58;;;;;;;3.20;2.40;;;27.60;79.70;;;;;;5122809;28;20029;-77
2022/06/12 09:40:29;;;;;;;5.00;2.70;;;27.90;80.00;;;;;;5122168;28;20055;-77
2022/06/12 09:43:03;;;;;;;4.40;2.58;;;27.90;77.90;;;;;;5119194;28;20028;-77
2022/06/12 09:45:40;;;;;;;2.63;2.10;;;28.10;77.50;;;;;;5120370;28;20078;-77
2022/06/12 09:48:17;;;;;;;5.25;2.20;;;28.40;78.60;;;;;;5102397;28;20115;-77
2022/06/12 09:50:59;;;;;;;3.80;2.13;;;28.60;74.10;;;;;;5120051;27;20058;-78
2022/06/12 09:53:33;;;;;;;4.80;2.40;;;28.70;71.10;;;;;;5121702;28;20111;-77
2022/06/12 09:56:13;;;;;;;2.50;2.25;;;28.40;74.40;;;;;;5118664;28;20040;-77
2022/06/12 09:58:52;;;;;;;3.20;2.17;;;28.20;78.40;;;;;;5099023;28;20441;-78
2022/06/12 10:01:27;;;;;;;3.50;2.13;;;28.40;74.70;;;;;;5115835;28;20043;-74
2022/06/12 10:04:03;;;;;;;3.67;2.30;;;28.60;71.00;;;;;;5114674;28;20117;-77
2022/06/12 10:06:35;;;;;;;2.70;2.00;;;28.60;71.40;;;;;;5116410;28;20523;-77
2022/06/12 10:09:14;;;;;;;4.55;1.90;;;28.70;71.70;;;;;;5096996;28;20123;-77
2022/06/12 10:11:55;;;;;;;3.45;1.80;;;29.00;68.50;;;;;;5113091;28;20100;-83
2022/06/12 10:14:28;;;;;;;4.60;2.00;;;29.20;71.70;;;;;;5093672;28;20059;-78
2022/06/12 10:17:05;;;;;;;5.20;2.25;;;28.70;70.80;;;;;;5112040;28;20109;-78
2022/06/12 10:20:09;;;;;;;3.70;2.10;;;28.80;75.50;;;;;;5113941;28;20040;-78
2022/06/12 10:22:45;;;;;;;4.03;2.00;;;28.90;71.70;;;;;;5117002;28;20051;-81
2022/06/12 10:25:22;;;;;;;2.97;1.95;;;29.10;71.80;;;;;;5125560;28;20024;-80
2022/06/12 10:27:55;;;;;;;3.55;2.10;;;29.50;69.80;;;;;;5126657;27;20182;-80
2022/06/12 10:30:35;;;;;;;4.20;2.20;;;29.50;66.30;;;;;;5104378;27;20091;-82
2022/06/12 10:33:18;;;;;;;3.88;2.10;;;29.40;68.50;;;;;;5124936;28;20035;-80
2022/06/12 10:35:53;;;;;;;3.53;1.98;;;29.20;69.00;;;;;;5126692;28;20047;-80
2022/06/12 10:38:21;;;;;;;3.25;2.10;;;29.20;67.40;;;;;;5125794;28;20040;-81
2022/06/12 10:40:54;;;;;;;5.30;2.30;;;29.20;67.70;;;;;;5125387;27;20466;-81
2022/06/12 10:43:42;;;;;;;3.67;2.50;;;29.20;71.20;;;;;;5127872;28;20101;-80
2022/06/12 10:46:14;;;;;;;4.97;2.22;;;29.20;68.50;;;;;;5108513;28;20416;-81
2022/06/12 10:48:40;;;;;;;5.72;2.17;;;29.50;69.60;;;;;;5126513;28;20047;-81
2022/06/12 10:51:11;;;;;;;5.30;2.20;;;29.60;66.90;;;;;;5127881;27;20036;-82
2022/06/12 10:53:37;;;;;;;3.00;1.88;;;29.50;70.60;;;;;;5130875;28;20524;-81
2022/06/12 10:56:38;;;;;;;2.65;2.15;;;29.90;64.60;;;;;;5129241;28;20055;-83
2022/06/12 10:59:09;;;;;;;4.70;2.10;;;30.30;65.30;;;;;;5115860;28;20044;-80
2022/06/12 11:02:06;;;;;;;3.28;2.13;;;30.20;65.30;;;;;;5102660;28;20020;-80
2022/06/12 11:05:01;;;;;;;3.58;2.10;;;30.10;67.70;;;;;;5121403;28;20092;-81
2022/06/12 11:07:41;;;;;;;2.72;1.90;;;30.50;62.30;;;;;;5104776;28;20032;-80
2022/06/12 11:10:29;;;;;;;3.28;2.20;;;30.70;66.60;;;;;;5124388;28;20039;-81
2022/06/12 11:13:26;;;;;;;4.18;1.98;;;30.60;61.50;;;;;;5105165;28;20038;-81
2022/06/12 11:16:06;;;;;;;4.10;2.05;;;30.20;63.20;;;;;;5122139;28;20031;-80
2022/06/12 11:18:56;;;;;;;3.30;1.92;;;29.70;63.50;;;;;;5123551;28;20531;-80
2022/06/12 11:22:00;;;;;;;2.80;1.77;;;30.00;62.20;;;;;;5103940;28;20513;-80
2022/06/12 11:24:56;;;;;;;3.70;1.70;;;30.20;65.60;;;;;;5124598;28;20115;-79
2022/06/12 11:27:33;;;;;;;3.55;1.83;;;30.60;63.50;;;;;;5122141;28;20478;-82
2022/06/12 11:30:21;;;;;;;3.00;2.10;;;31.10;60.60;;;;;;5123019;28;20028;-81
2022/06/12 11:33:18;;;;;;;2.67;1.98;;;31.20;62.30;;;;;;5103703;28;20024;-81
2022/06/12 11:36:15;;;;;;;7.15;1.92;;;31.60;60.00;;;;;;5102004;28;20687;-80
2022/06/12 11:38:47;;;;;;;3.20;1.70;;;32.00;57.40;;;;;;5119951;27;20044;-80
2022/06/12 11:41:57;;;;;;;9.70;2.00;;;32.10;57.20;;;;;;5118264;27;20036;-81
2022/06/12 11:44:49;;;;;;;4.40;1.83;;;32.40;59.30;;;;;;5082433;28;20044;-80
2022/06/12 11:47:50;;;;;;;3.08;1.58;;;32.40;57.40;;;;;;5098904;28;20497;-80
2022/06/12 11:50:34;;;;;;;4.55;2.20;;;32.20;55.20;;;;;;5118046;27;20032;-80
2022/06/12 11:53:17;;;;;;;3.20;1.65;;;32.40;56.80;;;;;;5119862;28;20032;-81
2022/06/12 11:55:57;;;;;;;3.65;1.90;;;31.90;56.50;;;;;;5118402;28;20162;-79
2022/06/12 11:58:40;;;;;;;3.58;1.80;;;32.10;58.00;;;;;;5118050;28;20760;-82
2022/06/12 12:01:18;;;;;;;4.10;1.67;;;32.40;57.10;;;;;;5115445;28;20035;-79
2022/06/12 12:04:24;;;;;;;2.85;1.80;;;32.50;58.60;;;;;;5097140;28;20587;-79
2022/06/12 12:07:08;;;;;;;2.45;1.67;;;32.50;58.90;;;;;;5119235;28;20024;-79
2022/06/12 12:09:33;;;;;;;2.75;1.90;;;32.60;56.50;;;;;;5102971;28;20035;-81
2022/06/12 12:12:06;;;;;;;3.63;1.80;;;32.60;62.40;;;;;;5121727;28;20084;-80
2022/06/12 12:14:34;;;;;;;2.88;1.85;;;32.40;57.90;;;;;;5122365;28;20570;-81
2022/06/12 12:17:09;;;;;;;3.30;1.88;;;32.50;56.30;;;;;;5101883;28;20036;-81
2022/06/12 12:19:53;;;;;;;3.20;1.70;;;32.40;56.10;;;;;;5120567;28;20042;-81
2022/06/12 12:22:35;;;;;;;3.20;1.60;;;32.60;55.70;;;;;;5123287;28;20024;-81
2022/06/12 12:25:27;;;;;;;3.25;1.70;;;32.90;54.00;;;;;;5106752;28;20036;-83
2022/06/12 12:27:56;;;;;;;2.83;1.48;;;33.10;58.70;;;;;;5120624;28;20494;-81
2022/06/12 12:30:51;;;;;;;2.30;1.58;;;33.10;55.60;;;;;;5092698;27;20036;-79
2022/06/12 12:33:19;;;;;;;3.88;1.52;;;33.40;54.00;;;;;;5106511;28;20028;-78
2022/06/12 12:41:23;;;;;;;2.25;1.63;;;33.00;57.80;;;;;;5122091;27;20043;-83
2022/06/12 12:44:00;;;;;;;2.63;1.60;;;32.40;58.20;;;;;;5106994;28;20032;-79
2022/06/12 12:46:49;;;;;;;2.35;1.73;;;32.80;56.00;;;;;;5123765;28;20043;-80
2022/06/12 12:49:22;;;;;;;2.67;1.70;;;33.40;55.80;;;;;;5104351;28;20092;-79
2022/06/12 12:51:48;;;;;;;1.77;1.33;;;34.10;52.80;;;;;;5121734;27;20036;-79
2022/06/12 12:54:20;;;;;;;2.95;1.60;;;34.40;51.40;;;;;;5120871;28;20042;-79
2022/06/12 12:57:02;;;;;;;2.53;1.83;;;34.30;53.20;;;;;;5120711;28;20036;-79
2022/06/12 12:59:38;;;;;;;2.40;1.80;;;34.40;51.60;;;;;;5119779;28;20036;-79
2022/06/12 13:02:28;;;;;;;4.30;1.52;;;34.70;50.60;;;;;;5119904;28;20032;-79
2022/06/12 13:04:58;;;;;;;3.03;1.80;;;34.60;52.70;;;;;;5118674;28;20024;-78
2022/06/12 13:07:42;;;;;;;2.80;1.50;;;33.60;53.10;;;;;;5117745;28;20024;-81
2022/06/12 13:10:37;;;;;;;3.60;1.67;;;32.50;54.90;;;;;;5122740;28;20081;-80
2022/06/12 13:13:27;;;;;;;2.70;1.70;;;31.80;57.10;;;;;;5105129;28;20092;-80
2022/06/12 13:16:14;;;;;;;5.57;2.10;;;32.40;57.70;;;;;;5103918;28;20027;-76
2022/06/12 13:19:06;;;;;;;2.75;1.80;;;33.80;55.20;;;;;;5119099;28;20520;-83
2022/06/12 13:21:37;;;;;;;2.17;1.70;;;35.10;53.60;;;;;;5103792;28;20064;-82
2022/06/12 13:24:26;;;;;;;2.05;1.75;;;36.30;51.10;;;;;;5108057;28;20237;-82
2022/06/12 13:26:53;;;;;;;2.75;1.85;;;36.50;51.50;;;;;;5096338;28;20100;-82
2022/06/12 13:29:22;;;;;;;3.42;1.52;;;35.50;50.40;;;;;;5113366;28;20856;-80
2022/06/12 13:32:07;;;;;;;4.13;1.65;;;33.80;52.50;;;;;;5103882;28;20753;-82
2022/06/12 13:34:34;;;;;;;4.35;1.85;;;32.70;55.30;;;;;;5105771;28;20527;-81
2022/06/12 13:37:14;;;;;;;2.25;1.65;;;32.10;57.40;;;;;;5125203;28;20043;-81
2022/06/12 13:40:25;;;;;;;2.78;1.58;;;32.30;56.80;;;;;;5107241;28;20097;-82
2022/06/12 13:43:11;;;;;;;3.28;1.80;;;34.80;54.70;;;;;;5123737;28;20032;-82
2022/06/12 13:45:58;;;;;;;4.15;1.70;;;35.90;51.10;;;;;;5120350;28;20051;-83
2022/06/12 13:51:47;;;;;;;2.25;2.03;;;38.20;48.40;;;;;;5103919;28;20044;-80
2022/06/12 13:54:18;;;;;;;1.95;1.67;;;39.50;49.00;;;;;;5120706;28;20031;-80
2022/06/12 13:56:57;;;;;;;2.17;1.67;;;38.80;47.50;;;;;;5115769;28;20429;-79
2022/06/12 13:59:26;;;;;;;2.75;1.85;;;38.30;44.00;;;;;;5113188;28;20501;-79
2022/06/12 14:01:52;;;;;;;2.25;1.50;;;38.90;47.60;;;;;;5111561;27;20115;-79
2022/06/12 14:04:24;;;;;;;3.38;1.60;;;38.90;44.60;;;;;;5101838;28;20120;-86
2022/06/12 14:06:51;;;;;;;3.70;1.70;;;38.40;44.40;;;;;;5105764;28;20032;-79
2022/06/12 14:09:26;;;;;;;2.72;1.80;;;38.00;45.90;;;;;;5108692;28;20043;-88
2022/06/12 14:11:53;;;;;;;3.17;1.50;;;38.30;42.50;;;;;;5124542;27;20043;-79
2022/06/12 14:14:29;;;;;;;3.03;1.60;;;37.00;42.20;;;;;;5123031;28;20040;-79
2022/06/12 14:16:55;;;;;;;2.00;1.60;;;36.40;47.10;;;;;;5105755;28;20037;-79
2022/06/12 14:19:32;;;;;;;3.33;1.88;;;37.40;43.80;;;;;;5108758;28;20048;-81
2022/06/12 14:22:12;;;;;;;1.90;1.60;;;38.40;46.30;;;;;;5127017;27;20106;-80
2022/06/12 14:27:33;;;;;;;3.08;1.70;;;38.70;42.60;;;;;;5132698;28;20081;-80
2022/06/12 14:30:00;;;;;;;3.03;1.73;;;39.10;45.30;;;;;;5113777;28;20020;-80
2022/06/12 14:32:31;;;;;;;2.53;1.77;;;40.20;40.50;;;;;;5131752;27;20044;-80
2022/06/12 14:35:44;;;;;;;2.75;1.80;;;41.00;40.60;;;;;;5116370;28;20039;-80
2022/06/12 14:38:37;;;;;;;2.35;1.65;;;41.20;41.30;;;;;;5110549;28;20059;-80
2022/06/12 14:42:05;;;;;;;4.05;2.00;;;41.40;39.30;;;;;;5116558;28;20039;-81
2022/06/12 14:44:55;;;;;;;1.70;1.60;;;42.30;41.60;;;;;;5114932;28;20012;-83
2022/06/12 14:47:30;;;;;;;2.10;1.63;;;40.70;42.90;;;;;;5130959;28;20024;-81
2022/06/12 14:49:58;;;;;;;2.33;1.70;;;42.50;38.10;;;;;;5129698;28;20040;-81
2022/06/12 14:52:34;;;;;;;3.20;1.80;;;43.40;37.30;;;;;;5110672;28;20085;-80
2022/06/12 14:54:59;;;;;;;2.72;1.70;;;42.20;35.30;;;;;;5131369;28;20040;-81
2022/06/12 14:57:27;;;;;;;1.83;1.52;;;40.50;38.70;;;;;;5109111;28;20032;-80
2022/06/12 14:59:54;;;;;;;2.85;1.63;;;38.20;41.40;;;;;;5106508;28;20811;-81
2022/06/12 15:02:23;;;;;;;3.67;1.80;;;36.60;43.20;;;;;;5124385;28;20036;-82
2022/06/12 15:04:49;;;;;;;3.55;1.95;;;35.60;46.10;;;;;;5101923;28;20083;-81
2022/06/12 15:07:15;;;;;;;3.78;1.50;;;36.10;45.20;;;;;;5122926;28;20111;-81
2022/06/12 15:09:41;;;;;;;2.10;1.50;;;36.20;43.40;;;;;;5121331;28;20044;-81
2022/06/12 15:12:20;;;;;;;5.28;1.65;;;37.00;44.20;;;;;;5124398;27;20036;-81
2022/06/12 15:14:46;;;;;;;2.33;1.70;;;37.00;43.50;;;;;;5121853;27;20115;-82
2022/06/12 15:17:14;;;;;;;2.47;1.63;;;36.20;43.80;;;;;;5120311;28;20028;-82
2022/06/12 15:19:40;;;;;;;3.70;2.53;;;35.60;45.80;;;;;;5122947;28;20073;-81
2022/06/12 15:22:09;;;;;;;3.28;2.35;;;34.90;47.30;;;;;;5100742;28;20032;-81
2022/06/12 15:24:35;;;;;;;3.00;1.80;;;34.00;46.00;;;;;;5121309;28;20047;-81
2022/06/12 15:29:47;;;;;;;4.57;1.63;;;33.50;48.50;;;;;;5117404;28;20047;-83
2022/06/12 15:32:28;;;;;;;4.80;1.60;;;35.00;46.50;;;;;;5096952;28;20060;-83
2022/06/12 15:34:55;;;;;;;2.90;1.63;;;36.40;45.00;;;;;;5098499;28;20036;-83
2022/06/12 15:37:21;;;;;;;2.97;1.50;;;36.40;44.80;;;;;;5098516;28;20032;-83
2022/06/12 15:39:47;;;;;;;2.65;1.60;;;38.70;46.50;;;;;;5098556;28;20032;-84
2022/06/12 15:42:14;;;;;;;2.85;1.35;;;41.20;42.70;;;;;;5098599;28;20434;-84
2022/06/12 15:44:41;;;;;;;2.08;1.73;;;42.10;38.60;;;;;;5116751;28;20028;-82
2022/06/12 15:47:07;;;;;;;1.60;1.48;;;42.40;37.20;;;;;;5103397;27;20032;-80
2022/06/12 15:49:33;;;;;;;3.78;1.88;;;43.00;35.90;;;;;;5093833;28;20089;-80
2022/06/12 15:52:00;;;;;;;2.80;1.70;;;43.20;36.50;;;;;;5090446;28;20028;-81
2022/06/12 15:54:27;;;;;;;2.72;2.10;;;44.50;37.20;;;;;;5115437;28;20039;-80
2022/06/12 15:56:57;;;;;;;2.38;1.60;;;44.20;34.00;;;;;;5086609;28;20029;-79
2022/06/12 15:59:43;;;;;;;3.05;1.65;;;43.60;35.00;;;;;;5100704;28;20112;-78
2022/06/12 16:02:18;;;;;;;2.72;1.55;;;41.90;36.90;;;;;;5108249;28;20033;-81
2022/06/12 16:04:44;;;;;;;1.85;1.70;;;40.00;41.20;;;;;;5101522;28;20035;-81
2022/06/12 16:07:10;;;;;;;2.40;1.70;;;39.90;40.40;;;;;;5077917;28;20028;-84
2022/06/12 16:09:35;;;;;;;2.83;2.00;;;41.60;40.50;;;;;;5090778;28;20482;-81
2022/06/12 16:12:01;;;;;;;4.68;2.30;;;42.50;38.60;;;;;;5115820;28;20032;-81
2022/06/12 16:14:26;;;;;;;3.08;1.90;;;43.30;38.30;;;;;;5115115;28;20036;-81
2022/06/12 16:16:52;;;;;;;3.13;2.08;;;43.20;37.50;;;;;;5097165;28;20389;-81
2022/06/12 16:19:19;;;;;;;2.25;2.05;;;42.90;37.90;;;;;;5114786;28;20470;-81
2022/06/12 16:21:44;;;;;;;3.92;2.13;;;42.80;37.40;;;;;;5096114;28;20037;-79
2022/06/12 16:24:10;;;;;;;2.95;2.03;;;42.40;36.30;;;;;;5096692;27;20036;-81
2022/06/12 16:26:36;;;;;;;2.67;2.00;;;42.40;36.90;;;;;;5113971;28;20028;-82
2022/06/12 16:29:02;;;;;;;2.53;1.73;;;41.00;37.90;;;;;;5115502;28;20036;-81
2022/06/12 16:31:27;;;;;;;2.90;1.60;;;38.50;40.10;;;;;;5113119;28;20166;-81
2022/06/12 16:33:53;;;;;;;2.42;1.80;;;37.00;40.90;;;;;;5107864;28;20071;-80
2022/06/12 16:36:18;;;;;;;2.85;2.00;;;35.80;43.90;;;;;;5090236;28;20373;-81
2022/06/12 16:38:44;;;;;;;2.92;2.00;;;34.40;46.00;;;;;;5107592;28;20444;-80
2022/06/12 16:41:10;;;;;;;3.47;2.03;;;33.60;47.80;;;;;;5107092;28;20105;-80
2022/06/12 16:43:35;;;;;;;3.00;2.20;;;33.20;48.60;;;;;;5097226;28;20418;-80
2022/06/12 16:46:01;;;;;;;3.42;2.70;;;32.70;49.20;;;;;;5115307;28;20036;-80
2022/06/12 16:48:26;;;;;;;5.53;2.67;;;32.40;51.10;;;;;;5097502;28;20047;-81
2022/06/12 16:50:52;;;;;;;3.20;2.40;;;31.90;52.10;;;;;;5115793;28;20032;-80
2022/06/12 16:53:18;;;;;;;2.75;2.25;;;31.70;57.20;;;;;;5117465;28;20047;-80
2022/06/12 16:55:43;;;;;;;3.78;2.28;;;31.40;54.90;;;;;;5117479;28;20036;-80
2022/06/12 16:58:11;;;;;;;4.40;2.30;;;31.20;54.70;;;;;;5118736;28;20048;-81
2022/06/12 17:00:38;;;;;;;2.47;2.08;;;30.80;56.50;;;;;;5099017;28;20067;-80
2022/06/12 17:03:03;;;;;;;2.60;2.10;;;30.50;57.80;;;;;;5098110;28;20036;-80
2022/06/12 17:05:32;;;;;;;3.72;2.20;;;30.20;57.80;;;;;;5116247;28;20024;-79
2022/06/12 17:07:59;;;;;;;2.65;2.00;;;30.00;59.10;;;;;;5095328;28;20485;-79
2022/06/12 17:10:27;;;;;;;2.28;1.85;;;30.00;59.90;;;;;;5112710;28;20063;-79
2022/06/12 17:12:53;;;;;;;3.55;2.30;;;29.80;60.10;;;;;;5114168;28;20036;-78
2022/06/12 17:15:21;;;;;;;3.88;2.00;;;29.70;59.90;;;;;;5112942;28;20035;-79
2022/06/12 17:20:42;;;;;;;2.85;2.10;;;29.60;59.80;;;;;;5113105;28;20094;-78
2022/06/12 17:20:43;;;;;;;3.70;2.17;;;29.80;60.70;;;;;;5112320;28;20516;-81
2022/06/12 17:23:10;;;;;;;2.88;1.80;;;29.80;59.90;;;;;;5113846;28;20040;-79
2022/06/12 17:25:36;;;;;;;2.88;2.40;;;29.90;58.70;;;;;;5113525;28;20505;-79
2022/06/12 17:28:03;;;;;;;3.30;2.08;;;29.90;58.00;;;;;;5113609;28;20039;-78
2022/06/12 17:30:28;;;;;;;2.17;1.98;;;29.90;58.00;;;;;;5113916;28;20028;-78
2022/06/12 17:32:54;;;;;;;2.50;1.80;;;30.00;58.10;;;;;;5095274;28;20397;-79
2022/06/12 17:35:20;;;;;;;2.38;1.90;;;30.30;57.80;;;;;;5113315;28;20028;-79
2022/06/12 17:37:45;;;;;;;3.45;2.00;;;30.30;58.80;;;;;;5116701;27;20041;-78